createdAt,value
2023-04-15T00:01:43.169Z,99240.58
2023-04-15T00:04:14.604Z,99240.67
2023-04-15T00:06:51.673Z,99239.35
2023-04-15T00:09:23.464Z,99241.63
2023-04-15T00:11:55.216Z,99243.30
2023-04-15T00:14:26.905Z,99237.55
2023-04-15T00:16:58.601Z,99241.36
2023-04-15T00:19:30.094Z,99239.36
2023-04-15T00:22:01.780Z,99235.91
2023-04-15T00:24:33.237Z,99236.87
2023-04-15T00:27:04.681Z,99235.98
2023-04-15T00:29:36.303Z,99236.43
2023-04-15T00:32:07.873Z,99238.80
2023-04-15T00:34:39.262Z,99231.36
2023-04-15T00:37:11.502Z,99230.13
2023-04-15T00:39:42.992Z,99230.81
2023-04-15T00:42:14.976Z,99231.26
2023-04-15T00:44:46.239Z,99230.38
2023-04-15T00:47:19.138Z,99230.14
2023-04-15T00:49:50.764Z,99227.88
2023-04-15T00:52:22.414Z,99226.41
2023-04-15T00:54:54.034Z,99227.81
2023-04-15T00:57:26.172Z,99228.06
2023-04-15T00:59:59.380Z,99233.40
2023-04-15T01:02:31.049Z,99226.78
2023-04-15T01:05:02.502Z,99235.63
2023-04-15T01:07:34.066Z,99236.33
2023-04-15T01:10:06.476Z,99233.66
2023-04-15T01:12:38.117Z,99230.48
2023-04-15T01:15:11.886Z,99231.20
2023-04-15T01:17:43.777Z,99228.25
2023-04-15T01:20:16.360Z,99236.30
2023-04-15T01:22:48.156Z,99229.71
2023-04-15T01:25:24.323Z,99231.96
2023-04-15T01:27:55.793Z,99229.86
2023-04-15T01:30:27.612Z,99232.25
2023-04-15T01:32:58.984Z,99235.45
2023-04-15T01:35:30.595Z,99233.46
2023-04-15T01:38:06.767Z,99224.63
2023-04-15T01:40:38.298Z,99228.65
2023-04-15T01:43:09.599Z,99228.63
2023-04-15T01:45:41.185Z,99232.52
2023-04-15T01:48:12.673Z,99235.09
2023-04-15T01:50:44.202Z,99230.13
2023-04-15T01:53:16.194Z,99236.99
2023-04-15T01:55:47.684Z,99234.85
2023-04-15T01:58:19.292Z,99231.59
2023-04-15T02:00:50.855Z,99234.36
2023-04-15T02:03:22.725Z,99234.02
2023-04-15T02:05:54.263Z,99237.59
2023-04-15T02:08:25.569Z,99233.98
2023-04-15T02:10:57.066Z,99235.13
2023-04-15T02:13:28.779Z,99238.98
2023-04-15T02:16:00.760Z,99239.63
2023-04-15T02:18:32.207Z,99240.02
2023-04-15T02:21:06.555Z,99241.86
2023-04-15T02:23:38.057Z,99242.96
2023-04-15T02:26:09.663Z,99253.14
2023-04-15T02:28:41.100Z,99251.05
2023-04-15T02:31:12.387Z,99247.20
2023-04-15T02:33:43.944Z,99252.88
2023-04-15T02:36:15.375Z,99252.13
2023-04-15T02:38:46.767Z,99250.73
2023-04-15T02:41:18.139Z,99245.56
2023-04-15T02:43:49.548Z,99244.71
2023-04-15T02:46:23.201Z,99247.27
2023-04-15T02:48:54.891Z,99248.13
2023-04-15T02:51:26.338Z,99245.15
2023-04-15T02:53:58.335Z,99243.98
2023-04-15T02:56:30.588Z,99237.11
2023-04-15T02:59:02.349Z,99240.42
2023-04-15T03:01:33.686Z,99240.43
2023-04-15T03:04:05.313Z,99240.05
2023-04-15T03:06:36.886Z,99243.58
2023-04-15T03:09:08.344Z,99243.30
2023-04-15T03:11:41.840Z,99246.05
2023-04-15T03:14:13.471Z,99247.87
2023-04-15T03:16:44.852Z,99247.15
2023-04-15T03:19:16.369Z,99248.44
2023-04-15T03:21:47.606Z,99247.71
2023-04-15T03:24:19.010Z,99249.66
2023-04-15T03:26:50.521Z,99255.21
2023-04-15T03:29:21.874Z,99250.92
2023-04-15T03:31:53.602Z,99258.95
2023-04-15T03:34:24.952Z,99252.73
2023-04-15T03:36:56.494Z,99257.80
2023-04-15T03:39:28.677Z,99254.29
2023-04-15T03:42:10.222Z,99254.92
2023-04-15T03:44:51.408Z,99254.48
2023-04-15T03:47:30.282Z,99256.66
2023-04-15T03:50:12.946Z,99254.55
2023-04-15T03:52:57.139Z,99257.98
2023-04-15T03:55:37.951Z,99256.30
2023-04-15T03:58:18.827Z,99255.14
2023-04-15T04:00:50.323Z,99256.11
2023-04-15T04:03:22.014Z,99259.86
2023-04-15T04:05:54.162Z,99256.73
2023-04-15T04:08:25.446Z,99257.44
2023-04-15T04:10:57.427Z,99256.42
2023-04-15T04:13:28.821Z,99261.77
2023-04-15T04:16:00.432Z,99260.11
2023-04-15T04:18:31.915Z,99265.55
2023-04-15T04:21:03.697Z,99270.00
2023-04-15T04:23:35.208Z,99268.39
2023-04-15T04:26:06.470Z,99266.92
2023-04-15T04:28:39.829Z,99265.27
2023-04-15T04:31:11.677Z,99267.81
2023-04-15T04:33:43.378Z,99267.46
2023-04-15T04:36:14.813Z,99274.74
2023-04-15T04:38:46.211Z,99274.17
2023-04-15T04:41:17.868Z,99275.56
2023-04-15T04:43:49.315Z,99275.34
2023-04-15T04:46:20.908Z,99276.92
2023-04-15T04:48:52.246Z,99274.84
2023-04-15T04:51:23.583Z,99275.80
2023-04-15T04:53:55.374Z,99274.89
2023-04-15T04:56:26.717Z,99272.58
2023-04-15T04:58:58.387Z,99272.17
2023-04-15T05:01:29.953Z,99274.30
2023-04-15T05:04:01.595Z,99272.65
2023-04-15T05:06:33.463Z,99277.73
2023-04-15T05:09:04.951Z,99279.25
2023-04-15T05:11:36.523Z,99279.61
2023-04-15T05:14:07.840Z,99283.61
2023-04-15T05:16:39.072Z,99280.59
2023-04-15T05:19:10.923Z,99279.32
2023-04-15T05:21:42.299Z,99279.64
2023-04-15T05:24:13.830Z,99278.89
2023-04-15T05:26:45.202Z,99280.95
2023-04-15T05:29:16.568Z,99277.31
2023-04-15T05:31:48.063Z,99278.06
2023-04-15T05:34:19.610Z,99277.39
2023-04-15T05:36:51.119Z,99284.73
2023-04-15T05:39:22.591Z,99288.05
2023-04-15T05:41:54.027Z,99289.25
2023-04-15T05:44:25.966Z,99292.41
2023-04-15T05:46:57.396Z,99291.21
2023-04-15T05:49:29.102Z,99289.28
2023-04-15T05:52:00.476Z,99294.33
2023-04-15T05:54:31.970Z,99292.83
2023-04-15T05:57:03.468Z,99297.06
2023-04-15T05:59:34.930Z,99297.73
2023-04-15T06:02:06.543Z,99303.64
2023-04-15T06:04:38.852Z,99298.77
2023-04-15T06:07:10.310Z,99299.95
2023-04-15T06:09:42.057Z,99298.98
2023-04-15T06:12:13.509Z,99298.83
2023-04-15T06:14:44.980Z,99300.95
2023-04-15T06:17:18.750Z,99300.60
2023-04-15T06:19:55.681Z,99307.79
2023-04-15T06:22:27.255Z,99307.04
2023-04-15T06:24:58.650Z,99310.48
2023-04-15T06:27:30.105Z,99313.38
2023-04-15T06:30:01.663Z,99315.87
2023-04-15T06:32:33.867Z,99319.25
2023-04-15T06:35:05.746Z,99321.55
2023-04-15T06:37:37.385Z,99326.54
2023-04-15T06:40:11.451Z,99321.38
2023-04-15T06:42:42.769Z,99322.84
2023-04-15T06:45:15.030Z,99323.77
2023-04-15T06:47:47.072Z,99316.08
2023-04-15T06:50:18.633Z,99319.27
2023-04-15T06:52:50.194Z,99317.80
2023-04-15T06:55:21.726Z,99325.05
2023-04-15T06:57:53.255Z,99329.80
2023-04-15T07:00:25.781Z,99332.65
2023-04-15T07:02:57.404Z,99338.64
2023-04-15T07:05:28.896Z,99342.48
2023-04-15T07:08:00.633Z,99343.42
2023-04-15T07:10:31.981Z,99348.11
2023-04-15T07:13:03.497Z,99347.23
2023-04-15T07:15:34.916Z,99344.93
2023-04-15T07:18:07.087Z,99348.90
2023-04-15T07:20:38.689Z,99349.46
2023-04-15T07:23:10.216Z,99347.73
2023-04-15T07:25:41.623Z,99354.19
2023-04-15T07:28:13.150Z,99353.21
2023-04-15T07:30:44.496Z,99352.35
2023-04-15T07:33:16.095Z,99356.23
2023-04-15T07:35:48.088Z,99359.46
2023-04-15T07:38:19.451Z,99355.13
2023-04-15T07:40:51.269Z,99357.02
2023-04-15T07:43:23.146Z,99353.23
2023-04-15T07:45:54.659Z,99354.18
2023-04-15T07:48:26.176Z,99352.95
2023-04-15T07:50:57.968Z,99353.97
2023-04-15T07:53:29.743Z,99353.78
2023-04-15T07:56:01.571Z,99356.67
2023-04-15T07:58:33.423Z,99354.69
2023-04-15T08:01:06.165Z,99353.63
2023-04-15T08:03:37.929Z,99357.63
2023-04-15T08:06:09.807Z,99355.86
2023-04-15T08:08:43.410Z,99361.86
2023-04-15T08:11:16.575Z,99362.07
2023-04-15T08:13:48.416Z,99362.23
2023-04-15T08:16:23.286Z,99358.38
2023-04-15T08:18:57.068Z,99360.23
2023-04-15T08:21:31.137Z,99356.85
2023-04-15T08:24:04.231Z,99360.04
2023-04-15T08:26:36.004Z,99362.17
2023-04-15T08:29:07.710Z,99363.02
2023-04-15T08:31:39.553Z,99359.08
2023-04-15T08:34:11.084Z,99356.86
2023-04-15T08:36:42.886Z,99355.73
2023-04-15T08:39:14.578Z,99356.35
2023-04-15T08:41:50.069Z,99358.42
2023-04-15T08:44:22.750Z,99361.25
2023-04-15T08:46:55.004Z,99360.78
2023-04-15T08:49:28.889Z,99358.77
2023-04-15T08:52:02.086Z,99361.16
2023-04-15T08:54:34.005Z,99356.45
2023-04-15T08:57:05.917Z,99361.08
2023-04-15T08:59:37.452Z,99361.81
2023-04-15T09:02:09.487Z,99361.23
2023-04-15T09:04:41.708Z,99363.30
2023-04-15T09:07:13.248Z,99364.52
2023-04-15T09:09:44.612Z,99365.39
2023-04-15T09:12:17.306Z,99367.21
2023-04-15T09:14:49.737Z,99363.84
2023-04-15T09:17:23.046Z,99367.83
2023-04-15T09:20:12.034Z,99363.77
2023-04-15T09:22:44.513Z,99368.66
2023-04-15T09:25:34.815Z,99366.60
2023-04-15T09:28:08.678Z,99369.54
2023-04-15T09:30:40.260Z,99364.64
2023-04-15T09:33:12.421Z,99367.58
2023-04-15T09:35:44.150Z,99368.99
2023-04-15T09:38:16.143Z,99360.05
2023-04-15T09:40:47.648Z,99361.74
2023-04-15T09:43:19.294Z,99364.69
2023-04-15T09:45:55.964Z,99374.98
2023-04-15T09:48:29.289Z,99380.54
2023-04-15T09:51:03.062Z,99383.26
2023-04-15T09:53:39.277Z,99385.41
2023-04-15T09:56:12.414Z,99392.16
2023-04-15T09:58:44.532Z,99395.64
2023-04-15T10:01:16.022Z,99399.72
2023-04-15T10:03:48.913Z,99402.72
2023-04-15T10:06:20.873Z,99407.31
2023-04-15T10:08:52.423Z,99402.44
2023-04-15T10:11:24.997Z,99400.46
2023-04-15T10:13:57.908Z,99402.52
2023-04-15T10:16:31.497Z,99402.73
2023-04-15T10:19:05.910Z,99401.13
2023-04-15T10:21:39.199Z,99402.38
2023-04-15T10:24:11.483Z,99401.77
2023-04-15T10:26:43.553Z,99400.63
2023-04-15T10:29:16.078Z,99402.72
2023-04-15T10:31:48.033Z,99406.44
2023-04-15T10:34:20.507Z,99406.11
2023-04-15T10:36:52.642Z,99411.14
2023-04-15T10:39:47.081Z,99410.84
2023-04-15T10:42:20.984Z,99409.20
2023-04-15T10:45:03.889Z,99410.05
2023-04-15T10:47:35.905Z,99404.05
2023-04-15T10:50:08.680Z,99406.36
2023-04-15T10:52:45.311Z,99408.14
2023-04-15T10:55:21.367Z,99407.24
2023-04-15T10:58:01.949Z,99408.08
2023-04-15T11:00:40.144Z,99411.13
2023-04-15T11:03:12.529Z,99409.14
2023-04-15T11:06:04.325Z,99413.09
2023-04-15T11:09:02.853Z,99413.30
2023-04-15T11:12:10.023Z,99414.48
2023-04-15T11:14:54.139Z,99418.47
2023-04-15T11:17:32.001Z,99419.10
2023-04-15T11:20:05.823Z,99422.11
2023-04-15T11:22:37.770Z,99421.43
2023-04-15T11:25:10.250Z,99423.67
2023-04-15T11:27:41.809Z,99421.23
2023-04-15T11:30:24.601Z,99423.90
2023-04-15T11:33:00.146Z,99427.23
2023-04-15T11:35:31.858Z,99423.80
2023-04-15T11:38:07.065Z,99426.36
2023-04-15T11:40:39.470Z,99426.42
2023-04-15T11:43:13.410Z,99424.62
2023-04-15T11:45:56.171Z,99426.29
2023-04-15T11:48:29.345Z,99429.05
2023-04-15T11:51:01.959Z,99430.86
2023-04-15T11:53:42.440Z,99428.17
2023-04-15T11:56:19.997Z,99430.48
2023-04-15T11:58:53.645Z,99430.65
2023-04-15T12:01:35.454Z,99440.27
2023-04-15T12:04:15.026Z,99434.41
2023-04-15T12:06:46.613Z,99437.71
2023-04-15T12:09:18.361Z,99442.27
2023-04-15T12:11:51.613Z,99442.75
2023-04-15T12:14:29.304Z,99443.85
2023-04-15T12:17:02.566Z,99444.52
2023-04-15T12:19:36.853Z,99443.95
2023-04-15T12:22:10.614Z,99443.56
2023-04-15T12:24:44.326Z,99448.02
2023-04-15T12:27:17.229Z,99450.45
2023-04-15T12:29:48.738Z,99450.20
2023-04-15T12:32:22.191Z,99451.23
2023-04-15T12:34:55.548Z,99453.52
2023-04-15T12:37:27.521Z,99454.88
2023-04-15T12:39:59.004Z,99457.34
2023-04-15T12:42:31.905Z,99455.86
2023-04-15T12:45:03.386Z,99459.73
2023-04-15T12:47:35.106Z,99463.87
2023-04-15T12:50:07.542Z,99458.48
2023-04-15T12:52:39.074Z,99460.80
2023-04-15T12:55:12.683Z,99462.60
2023-04-15T12:57:44.625Z,99456.65
2023-04-15T13:00:19.090Z,99462.23
2023-04-15T13:02:51.209Z,99467.53
2023-04-15T13:05:22.772Z,99468.81
2023-04-15T13:07:54.420Z,99473.95
2023-04-15T13:10:25.962Z,99473.38
2023-04-15T13:12:58.175Z,99469.62
2023-04-15T13:15:29.626Z,99472.23
2023-04-15T13:18:01.486Z,99470.30
2023-04-15T13:20:33.122Z,99477.71
2023-04-15T13:23:04.687Z,99480.77
2023-04-15T13:25:36.635Z,99482.26
2023-04-15T13:28:08.125Z,99482.52
2023-04-15T13:30:40.989Z,99488.27
2023-04-15T13:33:12.433Z,99494.85
2023-04-15T13:35:44.601Z,99494.77
2023-04-15T13:38:16.220Z,99498.78
2023-04-15T13:40:47.912Z,99496.86
2023-04-15T13:43:19.749Z,99499.73
2023-04-15T13:45:51.767Z,99495.99
2023-04-15T13:48:23.266Z,99497.79
2023-04-15T13:50:54.620Z,99499.83
2023-04-15T13:53:33.994Z,99496.13
2023-04-15T13:56:12.089Z,99498.05
2023-04-15T13:58:44.571Z,99498.55
2023-04-15T14:01:16.763Z,99495.92
2023-04-15T14:03:48.310Z,99502.51
2023-04-15T14:06:20.008Z,99499.77
2023-04-15T14:08:53.094Z,99501.71
2023-04-15T14:11:24.870Z,99502.70
2023-04-15T14:13:56.353Z,99493.61
2023-04-15T14:16:27.844Z,99500.34
2023-04-15T14:19:00.234Z,99494.61
2023-04-15T14:21:32.908Z,99495.65
2023-04-15T14:24:04.308Z,99499.52
2023-04-15T14:26:35.897Z,99498.92
2023-04-15T14:29:07.477Z,99495.55
2023-04-15T14:31:38.920Z,99495.43
2023-04-15T14:34:13.152Z,99496.73
2023-04-15T14:36:45.103Z,99495.77
2023-04-15T14:39:17.443Z,99499.80
2023-04-15T14:41:49.807Z,99504.13
2023-04-15T14:44:21.761Z,99509.08
2023-04-15T14:46:54.978Z,99511.75
2023-04-15T14:49:27.008Z,99510.65
2023-04-15T14:51:58.421Z,99507.23
2023-04-15T14:54:30.310Z,99501.48
2023-04-15T14:57:03.295Z,99506.23
2023-04-15T14:59:34.925Z,99508.86
2023-04-15T15:02:06.937Z,99512.80
2023-04-15T15:04:40.938Z,99517.48
2023-04-15T15:07:12.509Z,99520.07
2023-04-15T15:09:43.974Z,99522.52
2023-04-15T15:12:16.534Z,99528.90
2023-04-15T15:14:48.093Z,99534.02
2023-04-15T15:17:20.942Z,99537.45
2023-04-15T15:19:54.606Z,99549.58
2023-04-15T15:22:26.353Z,99554.97
2023-04-15T15:25:00.512Z,99556.77
2023-04-15T15:27:32.498Z,99560.07
2023-04-15T15:30:04.409Z,99555.12
2023-04-15T15:32:36.045Z,99551.20
2023-04-15T15:35:08.675Z,99552.56
2023-04-15T15:37:41.091Z,99553.53
2023-04-15T15:40:15.324Z,99553.26
2023-04-15T15:42:50.119Z,99551.88
2023-04-15T15:45:22.301Z,99552.56
2023-04-15T15:47:54.850Z,99550.18
2023-04-15T15:50:26.789Z,99553.89
2023-04-15T15:52:59.033Z,99554.95
2023-04-15T15:55:30.817Z,99554.95
2023-04-15T15:58:02.478Z,99555.27
2023-04-15T16:00:34.046Z,99557.71
2023-04-15T16:03:07.182Z,99558.88
2023-04-15T16:05:40.005Z,99557.42
2023-04-15T16:08:11.596Z,99556.16
2023-04-15T16:10:43.262Z,99558.38
2023-04-15T16:13:14.825Z,99566.27
2023-04-15T16:15:46.511Z,99570.89
2023-04-15T16:18:18.093Z,99570.90
2023-04-15T16:20:49.593Z,99574.69
2023-04-15T16:23:24.237Z,99579.77
2023-04-15T16:25:54.278Z,99584.19
2023-04-15T16:28:27.542Z,99585.45
2023-04-15T16:30:59.077Z,99588.59
2023-04-15T16:33:31.406Z,99589.48
2023-04-15T16:36:03.249Z,99589.61
2023-04-15T16:38:35.156Z,99587.47
2023-04-15T16:41:07.265Z,99588.93
2023-04-15T16:43:39.853Z,99597.63
2023-04-15T16:46:11.854Z,99597.31
2023-04-15T16:48:43.675Z,99605.29
2023-04-15T16:51:15.232Z,99609.59
2023-04-15T16:53:47.293Z,99605.91
2023-04-15T16:56:19.175Z,99611.05
2023-04-15T16:58:50.519Z,99608.94
2023-04-15T17:01:23.310Z,99615.03
2023-04-15T17:03:56.121Z,99617.05
2023-04-15T17:06:28.643Z,99624.23
2023-04-15T17:09:00.191Z,99628.98
2023-04-15T17:11:33.266Z,99630.58
2023-04-15T17:14:05.576Z,99630.96
2023-04-15T17:16:37.740Z,99634.48
2023-04-15T17:19:12.649Z,99637.60
2023-04-15T17:21:44.818Z,99639.98
2023-04-15T17:24:17.032Z,99634.30
2023-04-15T17:26:49.796Z,99641.55
2023-04-15T17:29:21.488Z,99647.45
2023-04-15T17:31:53.163Z,99653.59
2023-04-15T17:34:25.450Z,99650.44
2023-04-15T17:37:20.934Z,99654.13
2023-04-15T17:39:53.070Z,99657.45
2023-04-15T17:42:27.726Z,99657.61
2023-04-15T17:45:04.112Z,99659.98
2023-04-15T17:47:37.877Z,99657.83
2023-04-15T17:50:11.262Z,99662.11
2023-04-15T17:52:44.331Z,99662.23
2023-04-15T17:55:23.164Z,99666.37
2023-04-15T17:58:02.462Z,99671.54
2023-04-15T18:00:34.653Z,99673.67
2023-04-15T18:03:08.474Z,99677.05
2023-04-15T18:05:42.676Z,99685.35
2023-04-15T18:08:15.100Z,99688.03
2023-04-15T18:10:47.851Z,99691.79
2023-04-15T18:13:21.973Z,99695.39
2023-04-15T18:15:54.295Z,99697.16
2023-04-15T18:18:29.293Z,99698.31
2023-04-15T18:21:02.889Z,99701.35
2023-04-15T18:23:35.691Z,99703.48
2023-04-15T18:26:09.041Z,99713.91
2023-04-15T18:28:41.957Z,99722.85
2023-04-15T18:31:13.963Z,99730.48
2023-04-15T18:33:46.629Z,99731.04
2023-04-15T18:36:19.095Z,99735.02
2023-04-15T18:38:52.124Z,99733.19
2023-04-15T18:41:26.028Z,99739.23
2023-04-15T18:43:59.755Z,99743.48
2023-04-15T18:46:33.567Z,99744.45
2023-04-15T18:49:10.465Z,99745.91
2023-04-15T18:51:43.312Z,99749.47
2023-04-15T18:54:16.244Z,99759.05
2023-04-15T18:56:49.393Z,99776.87
2023-04-15T18:59:30.099Z,99781.67
2023-04-15T19:02:04.448Z,99780.60
2023-04-15T19:04:37.540Z,99781.75
2023-04-15T19:07:13.585Z,99782.59
2023-04-15T19:09:48.230Z,99788.09
2023-04-15T19:12:18.517Z,99790.36
2023-04-15T19:14:51.709Z,99799.51
2023-04-15T19:17:26.241Z,99800.92
2023-04-15T19:20:00.007Z,99806.39
2023-04-15T19:22:38.988Z,99806.60
2023-04-15T19:25:16.786Z,99805.59
2023-04-15T19:27:48.866Z,99805.45
2023-04-15T19:30:22.751Z,99811.71
2023-04-15T19:32:56.150Z,99814.58
2023-04-15T19:35:27.841Z,99825.52
2023-04-15T19:38:05.810Z,99822.55
2023-04-15T19:40:41.202Z,99824.52
2023-04-15T19:43:18.144Z,99829.84
2023-04-15T19:45:52.635Z,99829.77
2023-04-15T19:48:26.315Z,99831.64
2023-04-15T19:50:59.553Z,99832.13
2023-04-15T19:53:34.336Z,99837.46
2023-04-15T19:56:19.517Z,99835.48
2023-04-15T19:58:54.244Z,99837.79
2023-04-15T20:01:26.956Z,99835.17
2023-04-15T20:04:00.310Z,99840.69
2023-04-15T20:06:34.959Z,99840.80
2023-04-15T20:09:10.951Z,99842.34
2023-04-15T20:12:46.851Z,99841.02
2023-04-15T20:14:37.019Z,99847.89
2023-04-15T20:17:09.845Z,99850.68
2023-04-15T20:19:42.964Z,99851.42
2023-04-15T20:22:19.728Z,99852.52
2023-04-15T20:24:52.970Z,99855.88
2023-04-15T20:27:26.018Z,99851.83
2023-04-15T20:29:58.906Z,99848.15
2023-04-15T20:32:34.137Z,99852.07
2023-04-15T20:35:07.201Z,99856.41
2023-04-15T20:37:41.127Z,99850.45
2023-04-15T20:40:16.567Z,99854.77
2023-04-15T20:42:48.707Z,99853.98
2023-04-15T20:45:20.668Z,99855.76
2023-04-15T20:47:57.378Z,99857.02
2023-04-15T20:50:30.115Z,99861.79
2023-04-15T20:53:05.490Z,99864.86
2023-04-15T20:55:37.498Z,99865.26
2023-04-15T20:58:10.491Z,99866.80
2023-04-15T21:00:42.394Z,99872.45
2023-04-15T21:03:15.694Z,99871.18
2023-04-15T21:05:47.455Z,99870.84
2023-04-15T21:08:19.299Z,99871.77
2023-04-15T21:10:50.867Z,99876.64
2023-04-15T21:13:22.408Z,99879.85
2023-04-15T21:15:54.809Z,99879.83
2023-04-15T21:18:26.806Z,99881.69
2023-04-15T21:21:02.974Z,99883.12
2023-04-15T21:23:36.445Z,99881.27
2023-04-15T21:26:08.401Z,99876.39
2023-04-15T21:28:39.744Z,99875.91
2023-04-15T21:31:11.231Z,99877.41
2023-04-15T21:33:43.393Z,99879.52
2023-04-15T21:36:14.911Z,99882.27
2023-04-15T21:38:46.345Z,99881.08
2023-04-15T21:41:17.983Z,99883.52
2023-04-15T21:43:49.692Z,99884.63
2023-04-15T21:46:25.382Z,99887.39
2023-04-15T21:48:58.731Z,99889.41
2023-04-15T21:51:30.303Z,99892.09
2023-04-15T21:54:02.099Z,99895.52
2023-04-15T21:56:33.526Z,99900.98
2023-04-15T21:59:05.216Z,99903.61
2023-04-15T22:01:36.963Z,99905.50
2023-04-15T22:04:10.017Z,99909.50
2023-04-15T22:06:41.593Z,99910.60
2023-04-15T22:09:14.402Z,99910.04
2023-04-15T22:11:47.542Z,99913.54
2023-04-15T22:14:19.119Z,99919.61
2023-04-15T22:16:50.497Z,99922.39
2023-04-15T22:19:22.269Z,99928.48
2023-04-15T22:21:54.613Z,99928.65
2023-04-15T22:24:38.064Z,99926.35
2023-04-15T22:27:12.244Z,99922.41
2023-04-15T22:29:43.939Z,99926.52
2023-04-15T22:32:15.598Z,99928.49
2023-04-15T22:34:47.035Z,99922.98
2023-04-15T22:37:18.705Z,99925.51
2023-04-15T22:39:49.989Z,99930.92
2023-04-15T22:42:21.427Z,99929.65
2023-04-15T22:44:53.130Z,99926.69
2023-04-15T22:47:24.462Z,99928.52
2023-04-15T22:49:56.045Z,99928.02
2023-04-15T22:52:30.910Z,99933.13
2023-04-15T22:55:02.816Z,99932.81
2023-04-15T22:57:34.252Z,99933.38
2023-04-15T23:00:06.241Z,99937.16
2023-04-15T23:02:38.370Z,99939.23
2023-04-15T23:05:12.644Z,99940.00
2023-04-15T23:07:42.905Z,99937.93
2023-04-15T23:10:14.413Z,99946.52
2023-04-15T23:12:45.877Z,99947.15
2023-04-15T23:15:17.367Z,99948.20
2023-04-15T23:17:48.842Z,99953.36
2023-04-15T23:20:21.293Z,99953.62
2023-04-15T23:22:53.557Z,99953.60
2023-04-15T23:25:25.090Z,99954.69
2023-04-15T23:27:56.666Z,99950.42
2023-04-15T23:30:28.258Z,99952.83
2023-04-15T23:32:59.886Z,99955.36
2023-04-15T23:35:31.210Z,99955.54
2023-04-15T23:38:03.178Z,99955.13
2023-04-15T23:40:35.239Z,99951.16
2023-04-15T23:43:06.756Z,99951.48
2023-04-15T23:45:38.376Z,99957.56
2023-04-15T23:48:10.443Z,99953.04
2023-04-15T23:50:41.993Z,99955.57
2023-04-15T23:53:13.561Z,99953.54
2023-04-15T23:55:46.352Z,99956.69
2023-04-15T23:58:17.845Z,99956.06
